sensor_id;sensor_type;location;lat;lon;timestamp;P1;durP1;ratioP1;P2;durP2;ratioP2
26920;SDS011;14483;47.844;9.660;2023-06-19T00:02:22;7.60;;;5.57;;
26920;SDS011;14483;47.844;9.660;2023-06-19T00:04:48;7.93;;;6.03;;
26920;SDS011;14483;47.844;9.660;2023-06-19T00:07:14;6.28;;;5.18;;
26920;SDS011;14483;47.844;9.660;2023-06-19T00:09:41;6.45;;;5.75;;
26920;SDS011;14483;47.844;9.660;2023-06-19T00:12:07;6.65;;;5.13;;
26920;SDS011;14483;47.844;9.660;2023-06-19T00:14:33;10.60;;;5.43;;
26920;SDS011;14483;47.844;9.660;2023-06-19T00:17:03;6.90;;;5.38;;
26920;SDS011;14483;47.844;9.660;2023-06-19T00:19:30;7.88;;;5.20;;
26920;SDS011;14483;47.844;9.660;2023-06-19T00:22:01;6.35;;;5.45;;
26920;SDS011;14483;47.844;9.660;2023-06-19T00:24:27;8.00;;;5.15;;
26920;SDS011;14483;47.844;9.660;2023-06-19T00:26:53;7.65;;;6.00;;
26920;SDS011;14483;47.844;9.660;2023-06-19T00:29:20;9.85;;;5.68;;
26920;SDS011;14483;47.844;9.660;2023-06-19T00:31:46;7.13;;;5.97;;
26920;SDS011;14483;47.844;9.660;2023-06-19T00:34:14;8.18;;;5.95;;
26920;SDS011;14483;47.844;9.660;2023-06-19T00:36:40;8.15;;;5.65;;
26920;SDS011;14483;47.844;9.660;2023-06-19T00:39:07;8.02;;;5.93;;
26920;SDS011;14483;47.844;9.660;2023-06-19T00:41:34;6.70;;;5.32;;
26920;SDS011;14483;47.844;9.660;2023-06-19T00:44:01;8.30;;;5.95;;
26920;SDS011;14483;47.844;9.660;2023-06-19T00:46:27;8.07;;;5.40;;
26920;SDS011;14483;47.844;9.660;2023-06-19T00:48:54;7.38;;;5.95;;
26920;SDS011;14483;47.844;9.660;2023-06-19T00:51:21;6.97;;;5.78;;
26920;SDS011;14483;47.844;9.660;2023-06-19T00:53:48;8.15;;;5.63;;
26920;SDS011;14483;47.844;9.660;2023-06-19T00:56:15;7.40;;;5.70;;
26920;SDS011;14483;47.844;9.660;2023-06-19T00:58:43;7.32;;;6.18;;
26920;SDS011;14483;47.844;9.660;2023-06-19T01:01:09;10.70;;;5.85;;
26920;SDS011;14483;47.844;9.660;2023-06-19T01:03:36;7.10;;;6.10;;
26920;SDS011;14483;47.844;9.660;2023-06-19T01:06:02;10.68;;;6.78;;
26920;SDS011;14483;47.844;9.660;2023-06-19T01:08:37;7.13;;;6.28;;
26920;SDS011;14483;47.844;9.660;2023-06-19T01:11:07;7.00;;;5.45;;
26920;SDS011;14483;47.844;9.660;2023-06-19T01:13:37;7.43;;;6.05;;
26920;SDS011;14483;47.844;9.660;2023-06-19T01:16:07;7.15;;;5.47;;
26920;SDS011;14483;47.844;9.660;2023-06-19T01:18:34;8.75;;;6.47;;
26920;SDS011;14483;47.844;9.660;2023-06-19T01:21:08;7.65;;;6.22;;
26920;SDS011;14483;47.844;9.660;2023-06-19T01:23:36;8.13;;;6.72;;
26920;SDS011;14483;47.844;9.660;2023-06-19T01:26:02;7.78;;;6.45;;
26920;SDS011;14483;47.844;9.660;2023-06-19T01:28:29;7.10;;;5.80;;
26920;SDS011;14483;47.844;9.660;2023-06-19T01:30:55;9.88;;;6.13;;
26920;SDS011;14483;47.844;9.660;2023-06-19T01:33:25;6.75;;;5.82;;
26920;SDS011;14483;47.844;9.660;2023-06-19T01:35:52;8.95;;;6.32;;
26920;SDS011;14483;47.844;9.660;2023-06-19T01:38:20;7.30;;;6.22;;
26920;SDS011;14483;47.844;9.660;2023-06-19T01:40:51;9.73;;;6.32;;
26920;SDS011;14483;47.844;9.660;2023-06-19T01:43:18;6.97;;;5.97;;
26920;SDS011;14483;47.844;9.660;2023-06-19T01:45:45;9.23;;;6.57;;
26920;SDS011;14483;47.844;9.660;2023-06-19T01:48:13;7.47;;;6.55;;
26920;SDS011;14483;47.844;9.660;2023-06-19T01:50:40;8.07;;;6.88;;
26920;SDS011;14483;47.844;9.660;2023-06-19T01:53:07;9.35;;;6.38;;
26920;SDS011;14483;47.844;9.660;2023-06-19T01:55:34;7.30;;;5.93;;
26920;SDS011;14483;47.844;9.660;2023-06-19T01:58:01;10.13;;;6.22;;
26920;SDS011;14483;47.844;9.660;2023-06-19T02:00:28;8.50;;;5.70;;
26920;SDS011;14483;47.844;9.660;2023-06-19T02:02:55;7.43;;;6.28;;
26920;SDS011;14483;47.844;9.660;2023-06-19T02:05:21;9.00;;;5.72;;
26920;SDS011;14483;47.844;9.660;2023-06-19T02:07:48;7.35;;;5.75;;
26920;SDS011;14483;47.844;9.660;2023-06-19T02:10:14;6.93;;;6.10;;
26920;SDS011;14483;47.844;9.660;2023-06-19T02:12:41;10.35;;;6.60;;
26920;SDS011;14483;47.844;9.660;2023-06-19T02:15:09;7.55;;;6.63;;
26920;SDS011;14483;47.844;9.660;2023-06-19T02:17:35;8.13;;;5.80;;
26920;SDS011;14483;47.844;9.660;2023-06-19T02:20:02;7.72;;;6.50;;
26920;SDS011;14483;47.844;9.660;2023-06-19T02:22:32;9.10;;;6.05;;
26920;SDS011;14483;47.844;9.660;2023-06-19T02:24:59;9.15;;;6.00;;
26920;SDS011;14483;47.844;9.660;2023-06-19T02:27:25;7.53;;;6.40;;
26920;SDS011;14483;47.844;9.660;2023-06-19T02:29:51;8.85;;;6.68;;
26920;SDS011;14483;47.844;9.660;2023-06-19T02:32:19;8.18;;;6.13;;
26920;SDS011;14483;47.844;9.660;2023-06-19T02:34:45;7.93;;;6.05;;
26920;SDS011;14483;47.844;9.660;2023-06-19T02:37:12;7.10;;;6.13;;
26920;SDS011;14483;47.844;9.660;2023-06-19T02:39:38;8.38;;;6.10;;
26920;SDS011;14483;47.844;9.660;2023-06-19T02:42:05;8.27;;;6.60;;
26920;SDS011;14483;47.844;9.660;2023-06-19T02:44:31;9.27;;;6.38;;
26920;SDS011;14483;47.844;9.660;2023-06-19T02:46:58;8.05;;;6.57;;
26920;SDS011;14483;47.844;9.660;2023-06-19T02:49:25;7.95;;;6.60;;
26920;SDS011;14483;47.844;9.660;2023-06-19T02:51:52;8.45;;;6.90;;
26920;SDS011;14483;47.844;9.660;2023-06-19T02:54:18;9.75;;;7.20;;
26920;SDS011;14483;47.844;9.660;2023-06-19T02:56:44;9.38;;;7.00;;
26920;SDS011;14483;47.844;9.660;2023-06-19T02:59:11;7.40;;;6.50;;
26920;SDS011;14483;47.844;9.660;2023-06-19T03:01:37;8.20;;;6.20;;
26920;SDS011;14483;47.844;9.660;2023-06-19T03:04:03;8.65;;;6.55;;
26920;SDS011;14483;47.844;9.660;2023-06-19T03:06:31;9.77;;;7.55;;
26920;SDS011;14483;47.844;9.660;2023-06-19T03:08:58;11.07;;;7.53;;
26920;SDS011;14483;47.844;9.660;2023-06-19T03:11:24;9.38;;;7.75;;
26920;SDS011;14483;47.844;9.660;2023-06-19T03:13:51;8.38;;;6.85;;
26920;SDS011;14483;47.844;9.660;2023-06-19T03:16:18;10.85;;;7.65;;
26920;SDS011;14483;47.844;9.660;2023-06-19T03:18:45;7.95;;;7.15;;
26920;SDS011;14483;47.844;9.660;2023-06-19T03:21:11;7.68;;;6.88;;
26920;SDS011;14483;47.844;9.660;2023-06-19T03:23:39;8.50;;;7.65;;
26920;SDS011;14483;47.844;9.660;2023-06-19T03:26:07;13.07;;;7.63;;
26920;SDS011;14483;47.844;9.660;2023-06-19T03:28:33;9.05;;;7.50;;
26920;SDS011;14483;47.844;9.660;2023-06-19T03:30:59;11.48;;;7.50;;
26920;SDS011;14483;47.844;9.660;2023-06-19T03:33:26;8.60;;;7.57;;
26920;SDS011;14483;47.844;9.660;2023-06-19T03:35:53;9.02;;;7.70;;
26920;SDS011;14483;47.844;9.660;2023-06-19T03:38:19;8.48;;;7.13;;
26920;SDS011;14483;47.844;9.660;2023-06-19T03:40:47;9.85;;;6.47;;
26920;SDS011;14483;47.844;9.660;2023-06-19T03:43:13;8.23;;;6.88;;
26920;SDS011;14483;47.844;9.660;2023-06-19T03:45:40;9.50;;;7.20;;
26920;SDS011;14483;47.844;9.660;2023-06-19T03:48:06;9.93;;;6.53;;
26920;SDS011;14483;47.844;9.660;2023-06-19T03:50:33;8.98;;;7.07;;
26920;SDS011;14483;47.844;9.660;2023-06-19T03:52:59;11.20;;;7.53;;
26920;SDS011;14483;47.844;9.660;2023-06-19T03:55:25;9.32;;;6.80;;
26920;SDS011;14483;47.844;9.660;2023-06-19T03:57:53;8.30;;;7.40;;
26920;SDS011;14483;47.844;9.660;2023-06-19T04:00:19;10.38;;;7.63;;
26920;SDS011;14483;47.844;9.660;2023-06-19T04:02:46;11.32;;;7.00;;
26920;SDS011;14483;47.844;9.660;2023-06-19T04:05:13;9.15;;;7.45;;
26920;SDS011;14483;47.844;9.660;2023-06-19T04:07:40;9.82;;;8.00;;
26920;SDS011;14483;47.844;9.660;2023-06-19T04:10:07;9.05;;;7.50;;
26920;SDS011;14483;47.844;9.660;2023-06-19T04:12:33;10.23;;;6.18;;
26920;SDS011;14483;47.844;9.660;2023-06-19T04:15:01;9.35;;;6.47;;
26920;SDS011;14483;47.844;9.660;2023-06-19T04:17:28;10.05;;;6.90;;
26920;SDS011;14483;47.844;9.660;2023-06-19T04:19:54;8.70;;;6.60;;
26920;SDS011;14483;47.844;9.660;2023-06-19T04:22:20;9.68;;;6.93;;
26920;SDS011;14483;47.844;9.660;2023-06-19T04:24:47;9.45;;;6.95;;
26920;SDS011;14483;47.844;9.660;2023-06-19T04:27:13;9.52;;;6.90;;
26920;SDS011;14483;47.844;9.660;2023-06-19T04:29:39;9.13;;;6.80;;
26920;SDS011;14483;47.844;9.660;2023-06-19T04:32:07;10.07;;;7.40;;
26920;SDS011;14483;47.844;9.660;2023-06-19T04:34:36;11.60;;;7.15;;
26920;SDS011;14483;47.844;9.660;2023-06-19T04:37:03;9.63;;;7.18;;
26920;SDS011;14483;47.844;9.660;2023-06-19T04:39:29;12.27;;;8.57;;
26920;SDS011;14483;47.844;9.660;2023-06-19T04:41:56;10.32;;;8.50;;
26920;SDS011;14483;47.844;9.660;2023-06-19T04:44:22;10.57;;;8.77;;
26920;SDS011;14483;47.844;9.660;2023-06-19T04:46:48;15.10;;;9.57;;
26920;SDS011;14483;47.844;9.660;2023-06-19T04:49:16;13.38;;;9.73;;
26920;SDS011;14483;47.844;9.660;2023-06-19T04:51:42;9.25;;;8.20;;
26920;SDS011;14483;47.844;9.660;2023-06-19T04:54:09;14.35;;;8.63;;
26920;SDS011;14483;47.844;9.660;2023-06-19T04:56:35;12.70;;;7.97;;
26920;SDS011;14483;47.844;9.660;2023-06-19T04:59:01;10.55;;;7.70;;
26920;SDS011;14483;47.844;9.660;2023-06-19T05:01:28;9.68;;;8.00;;
26920;SDS011;14483;47.844;9.660;2023-06-19T05:03:55;10.13;;;6.93;;
26920;SDS011;14483;47.844;9.660;2023-06-19T05:06:23;9.90;;;6.63;;
26920;SDS011;14483;47.844;9.660;2023-06-19T05:08:50;12.27;;;6.35;;
26920;SDS011;14483;47.844;9.660;2023-06-19T05:11:17;8.93;;;6.95;;
26920;SDS011;14483;47.844;9.660;2023-06-19T05:13:43;8.80;;;6.10;;
26920;SDS011;14483;47.844;9.660;2023-06-19T05:16:10;11.02;;;6.93;;
26920;SDS011;14483;47.844;9.660;2023-06-19T05:18:40;7.50;;;5.80;;
26920;SDS011;14483;47.844;9.660;2023-06-19T05:21:06;8.15;;;5.72;;
26920;SDS011;14483;47.844;9.660;2023-06-19T05:23:34;8.70;;;6.15;;
26920;SDS011;14483;47.844;9.660;2023-06-19T05:26:01;8.27;;;5.30;;
26920;SDS011;14483;47.844;9.660;2023-06-19T05:28:27;7.82;;;5.93;;
26920;SDS011;14483;47.844;9.660;2023-06-19T05:30:53;10.13;;;6.30;;
26920;SDS011;14483;47.844;9.660;2023-06-19T05:33:20;10.95;;;6.80;;
26920;SDS011;14483;47.844;9.660;2023-06-19T05:35:48;9.68;;;6.07;;
26920;SDS011;14483;47.844;9.660;2023-06-19T05:38:18;8.68;;;5.53;;
26920;SDS011;14483;47.844;9.660;2023-06-19T05:40:46;10.30;;;6.35;;
26920;SDS011;14483;47.844;9.660;2023-06-19T05:43:13;8.32;;;6.35;;
26920;SDS011;14483;47.844;9.660;2023-06-19T05:45:39;12.18;;;6.93;;
26920;SDS011;14483;47.844;9.660;2023-06-19T05:48:06;12.65;;;7.10;;
26920;SDS011;14483;47.844;9.660;2023-06-19T05:50:32;9.18;;;5.65;;
26920;SDS011;14483;47.844;9.660;2023-06-19T05:52:58;8.82;;;5.78;;
26920;SDS011;14483;47.844;9.660;2023-06-19T05:55:25;9.07;;;5.22;;
26920;SDS011;14483;47.844;9.660;2023-06-19T05:57:53;5.90;;;5.03;;
26920;SDS011;14483;47.844;9.660;2023-06-19T06:00:20;7.00;;;5.70;;
26920;SDS011;14483;47.844;9.660;2023-06-19T06:02:47;7.38;;;5.85;;
26920;SDS011;14483;47.844;9.660;2023-06-19T06:05:15;7.20;;;5.53;;
26920;SDS011;14483;47.844;9.660;2023-06-19T06:07:42;7.18;;;5.22;;
26920;SDS011;14483;47.844;9.660;2023-06-19T06:10:09;8.65;;;5.15;;
26920;SDS011;14483;47.844;9.660;2023-06-19T06:12:35;9.13;;;5.80;;
26920;SDS011;14483;47.844;9.660;2023-06-19T06:15:03;6.10;;;5.13;;
26920;SDS011;14483;47.844;9.660;2023-06-19T06:17:30;7.00;;;5.60;;
26920;SDS011;14483;47.844;9.660;2023-06-19T06:19:57;5.93;;;4.93;;
26920;SDS011;14483;47.844;9.660;2023-06-19T06:22:23;8.32;;;5.35;;
26920;SDS011;14483;47.844;9.660;2023-06-19T06:24:49;6.47;;;4.97;;
26920;SDS011;14483;47.844;9.660;2023-06-19T06:27:16;6.25;;;4.60;;
26920;SDS011;14483;47.844;9.660;2023-06-19T06:29:42;10.07;;;4.95;;
26920;SDS011;14483;47.844;9.660;2023-06-19T06:32:10;10.02;;;5.03;;
26920;SDS011;14483;47.844;9.660;2023-06-19T06:34:36;7.40;;;4.93;;
26920;SDS011;14483;47.844;9.660;2023-06-19T06:37:03;7.43;;;4.28;;
26920;SDS011;14483;47.844;9.660;2023-06-19T06:39:29;7.18;;;5.28;;
26920;SDS011;14483;47.844;9.660;2023-06-19T06:41:56;5.30;;;4.40;;
26920;SDS011;14483;47.844;9.660;2023-06-19T06:44:22;7.13;;;5.10;;
26920;SDS011;14483;47.844;9.660;2023-06-19T06:46:48;7.25;;;4.55;;
26920;SDS011;14483;47.844;9.660;2023-06-19T06:49:16;6.72;;;5.07;;
26920;SDS011;14483;47.844;9.660;2023-06-19T06:51:43;7.13;;;5.13;;
26920;SDS011;14483;47.844;9.660;2023-06-19T06:54:09;6.78;;;5.38;;
26920;SDS011;14483;47.844;9.660;2023-06-19T06:56:36;9.25;;;6.13;;
26920;SDS011;14483;47.844;9.660;2023-06-19T06:59:02;8.52;;;5.65;;
26920;SDS011;14483;47.844;9.660;2023-06-19T07:01:28;8.88;;;6.55;;
26920;SDS011;14483;47.844;9.660;2023-06-19T07:03:55;9.48;;;6.30;;
26920;SDS011;14483;47.844;9.660;2023-06-19T07:06:22;7.38;;;6.20;;
26920;SDS011;14483;47.844;9.660;2023-06-19T07:08:49;8.75;;;6.22;;
26920;SDS011;14483;47.844;9.660;2023-06-19T07:11:15;7.72;;;6.35;;
26920;SDS011;14483;47.844;9.660;2023-06-19T07:13:41;8.50;;;6.85;;
26920;SDS011;14483;47.844;9.660;2023-06-19T07:16:08;7.47;;;6.70;;
26920;SDS011;14483;47.844;9.660;2023-06-19T07:18:34;9.55;;;7.03;;
26920;SDS011;14483;47.844;9.660;2023-06-19T07:21:03;7.35;;;6.65;;
26920;SDS011;14483;47.844;9.660;2023-06-19T07:23:34;7.93;;;6.32;;
26920;SDS011;14483;47.844;9.660;2023-06-19T07:26:01;11.05;;;6.63;;
26920;SDS011;14483;47.844;9.660;2023-06-19T07:28:28;10.48;;;7.63;;
26920;SDS011;14483;47.844;9.660;2023-06-19T07:30:55;6.72;;;5.78;;
26920;SDS011;14483;47.844;9.660;2023-06-19T07:33:21;8.65;;;6.53;;
26920;SDS011;14483;47.844;9.660;2023-06-19T07:35:47;9.05;;;5.97;;
26920;SDS011;14483;47.844;9.660;2023-06-19T07:38:14;6.45;;;5.65;;
26920;SDS011;14483;47.844;9.660;2023-06-19T07:40:42;7.43;;;4.97;;
26920;SDS011;14483;47.844;9.660;2023-06-19T07:43:09;7.63;;;5.85;;
26920;SDS011;14483;47.844;9.660;2023-06-19T07:45:35;7.90;;;6.03;;
26920;SDS011;14483;47.844;9.660;2023-06-19T07:48:02;9.07;;;5.75;;
26920;SDS011;14483;47.844;9.660;2023-06-19T07:50:29;6.18;;;5.25;;
26920;SDS011;14483;47.844;9.660;2023-06-19T07:52:55;8.57;;;5.50;;
26920;SDS011;14483;47.844;9.660;2023-06-19T07:55:21;7.13;;;4.65;;
26920;SDS011;14483;47.844;9.660;2023-06-19T07:57:49;4.90;;;4.18;;
26920;SDS011;14483;47.844;9.660;2023-06-19T08:00:17;8.18;;;4.85;;
26920;SDS011;14483;47.844;9.660;2023-06-19T08:02:44;5.57;;;3.95;;
26920;SDS011;14483;47.844;9.660;2023-06-19T08:05:10;4.45;;;3.15;;
26920;SDS011;14483;47.844;9.660;2023-06-19T08:07:36;4.20;;;3.60;;
26920;SDS011;14483;47.844;9.660;2023-06-19T08:10:03;7.63;;;4.07;;
26920;SDS011;14483;47.844;9.660;2023-06-19T08:12:30;5.43;;;3.75;;
26920;SDS011;14483;47.844;9.660;2023-06-19T08:14:57;5.35;;;3.97;;
26920;SDS011;14483;47.844;9.660;2023-06-19T08:17:24;4.72;;;3.33;;
26920;SDS011;14483;47.844;9.660;2023-06-19T08:19:50;4.82;;;3.90;;
26920;SDS011;14483;47.844;9.660;2023-06-19T08:22:16;5.57;;;3.67;;
26920;SDS011;14483;47.844;9.660;2023-06-19T08:24:43;5.32;;;4.13;;
26920;SDS011;14483;47.844;9.660;2023-06-19T08:27:09;5.20;;;3.95;;
26920;SDS011;14483;47.844;9.660;2023-06-19T08:29:35;6.22;;;3.67;;
26920;SDS011;14483;47.844;9.660;2023-06-19T08:32:03;7.00;;;3.80;;
26920;SDS011;14483;47.844;9.660;2023-06-19T08:34:30;5.97;;;3.85;;
26920;SDS011;14483;47.844;9.660;2023-06-19T08:36:56;5.82;;;4.47;;
26920;SDS011;14483;47.844;9.660;2023-06-19T08:39:23;5.30;;;4.28;;
26920;SDS011;14483;47.844;9.660;2023-06-19T08:41:49;9.38;;;4.78;;
26920;SDS011;14483;47.844;9.660;2023-06-19T08:44:15;11.15;;;4.97;;
26920;SDS011;14483;47.844;9.660;2023-06-19T08:46:42;7.13;;;4.82;;
26920;SDS011;14483;47.844;9.660;2023-06-19T08:49:09;9.95;;;4.43;;
26920;SDS011;14483;47.844;9.660;2023-06-19T08:51:36;5.60;;;4.60;;
26920;SDS011;14483;47.844;9.660;2023-06-19T08:54:03;20.33;;;6.75;;
26920;SDS011;14483;47.844;9.660;2023-06-19T08:56:30;7.93;;;5.10;;
26920;SDS011;14483;47.844;9.660;2023-06-19T08:59:07;7.63;;;5.07;;
26920;SDS011;14483;47.844;9.660;2023-06-19T09:01:33;7.47;;;4.70;;
26920;SDS011;14483;47.844;9.660;2023-06-19T09:03:59;6.60;;;4.57;;
26920;SDS011;14483;47.844;9.660;2023-06-19T09:06:27;7.90;;;4.40;;
26920;SDS011;14483;47.844;9.660;2023-06-19T09:08:59;4.60;;;4.00;;
26920;SDS011;14483;47.844;9.660;2023-06-19T09:13:55;5.43;;;4.13;;
26920;SDS011;14483;47.844;9.660;2023-06-19T09:16:22;5.90;;;4.20;;
26920;SDS011;14483;47.844;9.660;2023-06-19T09:18:49;4.97;;;3.78;;
26920;SDS011;14483;47.844;9.660;2023-06-19T09:21:16;4.38;;;3.72;;
26920;SDS011;14483;47.844;9.660;2023-06-19T09:23:44;4.78;;;4.07;;
26920;SDS011;14483;47.844;9.660;2023-06-19T09:26:10;5.15;;;3.97;;
26920;SDS011;14483;47.844;9.660;2023-06-19T09:28:40;5.68;;;4.20;;
26920;SDS011;14483;47.844;9.660;2023-06-19T09:31:07;4.25;;;3.15;;
26920;SDS011;14483;47.844;9.660;2023-06-19T09:33:33;6.55;;;3.30;;
26920;SDS011;14483;47.844;9.660;2023-06-19T09:36:01;4.30;;;3.78;;
26920;SDS011;14483;47.844;9.660;2023-06-19T09:38:29;4.47;;;3.28;;
26920;SDS011;14483;47.844;9.660;2023-06-19T09:40:59;5.13;;;3.70;;
26920;SDS011;14483;47.844;9.660;2023-06-19T09:43:30;5.22;;;3.95;;
26920;SDS011;14483;47.844;9.660;2023-06-19T09:45:59;4.75;;;3.47;;
26920;SDS011;14483;47.844;9.660;2023-06-19T09:48:27;5.80;;;3.45;;
26920;SDS011;14483;47.844;9.660;2023-06-19T09:50:54;4.72;;;3.95;;
26920;SDS011;14483;47.844;9.660;2023-06-19T09:53:25;5.32;;;4.18;;
26920;SDS011;14483;47.844;9.660;2023-06-19T09:55:51;5.25;;;3.05;;
26920;SDS011;14483;47.844;9.660;2023-06-19T09:58:19;5.53;;;3.30;;
26920;SDS011;14483;47.844;9.660;2023-06-19T10:00:46;4.20;;;3.80;;
26920;SDS011;14483;47.844;9.660;2023-06-19T10:03:14;4.85;;;3.67;;
26920;SDS011;14483;47.844;9.660;2023-06-19T10:05:41;4.88;;;3.88;;
26920;SDS011;14483;47.844;9.660;2023-06-19T10:08:08;6.88;;;4.03;;
26920;SDS011;14483;47.844;9.660;2023-06-19T10:10:34;4.28;;;3.45;;
26920;SDS011;14483;47.844;9.660;2023-06-19T10:13:11;3.67;;;3.20;;
26920;SDS011;14483;47.844;9.660;2023-06-19T10:15:41;6.53;;;4.20;;
26920;SDS011;14483;47.844;9.660;2023-06-19T10:18:08;4.32;;;3.65;;
26920;SDS011;14483;47.844;9.660;2023-06-19T10:20:39;4.82;;;3.97;;
26920;SDS011;14483;47.844;9.660;2023-06-19T10:23:07;3.97;;;3.15;;
26920;SDS011;14483;47.844;9.660;2023-06-19T10:25:34;6.00;;;3.80;;
26920;SDS011;14483;47.844;9.660;2023-06-19T10:28:00;5.00;;;3.85;;
26920;SDS011;14483;47.844;9.660;2023-06-19T10:30:27;6.07;;;3.80;;
26920;SDS011;14483;47.844;9.660;2023-06-19T10:32:55;5.50;;;4.13;;
26920;SDS011;14483;47.844;9.660;2023-06-19T10:35:22;4.47;;;3.67;;
26920;SDS011;14483;47.844;9.660;2023-06-19T10:37:49;6.10;;;3.85;;
26920;SDS011;14483;47.844;9.660;2023-06-19T10:40:16;4.30;;;3.90;;
26920;SDS011;14483;47.844;9.660;2023-06-19T10:42:42;4.88;;;3.70;;
26920;SDS011;14483;47.844;9.660;2023-06-19T10:45:10;4.88;;;4.15;;
26920;SDS011;14483;47.844;9.660;2023-06-19T10:47:37;6.38;;;4.45;;
26920;SDS011;14483;47.844;9.660;2023-06-19T10:50:08;4.97;;;3.83;;
26920;SDS011;14483;47.844;9.660;2023-06-19T10:52:35;5.00;;;3.65;;
26920;SDS011;14483;47.844;9.660;2023-06-19T10:55:01;10.13;;;4.43;;
26920;SDS011;14483;47.844;9.660;2023-06-19T10:57:31;7.32;;;4.22;;
26920;SDS011;14483;47.844;9.660;2023-06-19T10:59:57;5.00;;;4.20;;
26920;SDS011;14483;47.844;9.660;2023-06-19T11:02:24;7.45;;;4.40;;
26920;SDS011;14483;47.844;9.660;2023-06-19T11:04:51;5.57;;;4.18;;
26920;SDS011;14483;47.844;9.660;2023-06-19T11:07:19;6.65;;;4.20;;
26920;SDS011;14483;47.844;9.660;2023-06-19T11:09:46;4.57;;;3.92;;
26920;SDS011;14483;47.844;9.660;2023-06-19T11:12:18;3.65;;;3.35;;
26920;SDS011;14483;47.844;9.660;2023-06-19T11:14:44;5.53;;;4.00;;
26920;SDS011;14483;47.844;9.660;2023-06-19T11:17:10;4.32;;;3.75;;
26920;SDS011;14483;47.844;9.660;2023-06-19T11:19:37;5.07;;;3.92;;
26920;SDS011;14483;47.844;9.660;2023-06-19T11:22:07;6.05;;;4.25;;
26920;SDS011;14483;47.844;9.660;2023-06-19T11:24:34;6.28;;;4.25;;
26920;SDS011;14483;47.844;9.660;2023-06-19T11:27:01;7.13;;;4.05;;
26920;SDS011;14483;47.844;9.660;2023-06-19T11:29:29;4.38;;;3.60;;
26920;SDS011;14483;47.844;9.660;2023-06-19T11:32:04;8.88;;;4.32;;
26920;SDS011;14483;47.844;9.660;2023-06-19T11:34:31;10.25;;;4.95;;
26920;SDS011;14483;47.844;9.660;2023-06-19T11:36:58;7.90;;;4.68;;
26920;SDS011;14483;47.844;9.660;2023-06-19T11:39:24;5.25;;;4.03;;
26920;SDS011;14483;47.844;9.660;2023-06-19T11:41:52;5.13;;;3.70;;
26920;SDS011;14483;47.844;9.660;2023-06-19T11:44:18;5.75;;;4.53;;
26920;SDS011;14483;47.844;9.660;2023-06-19T11:46:44;6.35;;;4.13;;
26920;SDS011;14483;47.844;9.660;2023-06-19T11:49:12;6.45;;;4.13;;
26920;SDS011;14483;47.844;9.660;2023-06-19T11:51:38;5.18;;;3.72;;
26920;SDS011;14483;47.844;9.660;2023-06-19T11:54:06;5.35;;;4.38;;
26920;SDS011;14483;47.844;9.660;2023-06-19T11:56:33;4.70;;;3.95;;
26920;SDS011;14483;47.844;9.660;2023-06-19T11:59:01;6.50;;;4.72;;
26920;SDS011;14483;47.844;9.660;2023-06-19T12:01:28;5.07;;;4.22;;
26920;SDS011;14483;47.844;9.660;2023-06-19T12:03:55;4.80;;;3.95;;
26920;SDS011;14483;47.844;9.660;2023-06-19T12:06:21;5.97;;;4.40;;
26920;SDS011;14483;47.844;9.660;2023-06-19T12:08:47;5.38;;;4.57;;
26920;SDS011;14483;47.844;9.660;2023-06-19T12:11:14;7.57;;;4.38;;
26920;SDS011;14483;47.844;9.660;2023-06-19T12:13:40;5.35;;;4.32;;
26920;SDS011;14483;47.844;9.660;2023-06-19T12:16:08;5.43;;;4.30;;
26920;SDS011;14483;47.844;9.660;2023-06-19T12:18:35;8.00;;;4.13;;
26920;SDS011;14483;47.844;9.660;2023-06-19T12:21:02;4.25;;;3.85;;
26920;SDS011;14483;47.844;9.660;2023-06-19T12:23:28;6.75;;;4.15;;
26920;SDS011;14483;47.844;9.660;2023-06-19T12:25:55;5.93;;;4.15;;
26920;SDS011;14483;47.844;9.660;2023-06-19T12:28:21;4.35;;;3.90;;
26920;SDS011;14483;47.844;9.660;2023-06-19T12:30:48;4.82;;;3.83;;
26920;SDS011;14483;47.844;9.660;2023-06-19T12:33:17;5.72;;;4.38;;
26920;SDS011;14483;47.844;9.660;2023-06-19T12:35:45;5.07;;;4.20;;
26920;SDS011;14483;47.844;9.660;2023-06-19T12:38:11;4.75;;;4.32;;
26920;SDS011;14483;47.844;9.660;2023-06-19T12:40:38;8.43;;;4.45;;
26920;SDS011;14483;47.844;9.660;2023-06-19T12:43:04;5.32;;;3.58;;
26920;SDS011;14483;47.844;9.660;2023-06-19T12:45:31;7.00;;;4.55;;
26920;SDS011;14483;47.844;9.660;2023-06-19T12:47:57;6.90;;;4.57;;
26920;SDS011;14483;47.844;9.660;2023-06-19T12:50:25;4.72;;;3.70;;
26920;SDS011;14483;47.844;9.660;2023-06-19T12:52:51;4.97;;;4.30;;
26920;SDS011;14483;47.844;9.660;2023-06-19T12:55:18;4.95;;;4.07;;
26920;SDS011;14483;47.844;9.660;2023-06-19T12:57:44;5.82;;;4.05;;
26920;SDS011;14483;47.844;9.660;2023-06-19T13:00:11;6.82;;;4.25;;
26920;SDS011;14483;47.844;9.660;2023-06-19T13:02:38;4.72;;;4.10;;
26920;SDS011;14483;47.844;9.660;2023-06-19T13:05:05;5.47;;;4.35;;
26920;SDS011;14483;47.844;9.660;2023-06-19T13:07:33;5.10;;;4.30;;
26920;SDS011;14483;47.844;9.660;2023-06-19T13:09:59;7.03;;;4.28;;
26920;SDS011;14483;47.844;9.660;2023-06-19T13:12:26;4.55;;;4.03;;
26920;SDS011;14483;47.844;9.660;2023-06-19T13:14:52;6.10;;;4.50;;
26920;SDS011;14483;47.844;9.660;2023-06-19T13:17:18;4.95;;;4.50;;
26920;SDS011;14483;47.844;9.660;2023-06-19T13:19:45;6.45;;;4.45;;
26920;SDS011;14483;47.844;9.660;2023-06-19T13:22:11;6.82;;;4.53;;
26920;SDS011;14483;47.844;9.660;2023-06-19T13:24:39;49.40;;;9.50;;
26920;SDS011;14483;47.844;9.660;2023-06-19T13:27:05;38.13;;;7.20;;
26920;SDS011;14483;47.844;9.660;2023-06-19T13:29:32;7.80;;;4.85;;
26920;SDS011;14483;47.844;9.660;2023-06-19T13:31:58;17.45;;;5.70;;
26920;SDS011;14483;47.844;9.660;2023-06-19T13:34:24;7.32;;;5.22;;
26920;SDS011;14483;47.844;9.660;2023-06-19T13:36:51;107.70;;;13.38;;
26920;SDS011;14483;47.844;9.660;2023-06-19T13:39:17;7.03;;;5.07;;
26920;SDS011;14483;47.844;9.660;2023-06-19T13:41:46;5.53;;;4.70;;
26920;SDS011;14483;47.844;9.660;2023-06-19T13:44:13;5.32;;;4.70;;
26920;SDS011;14483;47.844;9.660;2023-06-19T13:46:39;5.68;;;5.10;;
26920;SDS011;14483;47.844;9.660;2023-06-19T13:49:06;7.40;;;4.47;;
26920;SDS011;14483;47.844;9.660;2023-06-19T13:51:32;6.10;;;4.93;;
26920;SDS011;14483;47.844;9.660;2023-06-19T13:53:58;7.28;;;5.18;;
26920;SDS011;14483;47.844;9.660;2023-06-19T13:56:25;5.30;;;4.80;;
26920;SDS011;14483;47.844;9.660;2023-06-19T13:58:53;5.45;;;4.70;;
26920;SDS011;14483;47.844;9.660;2023-06-19T14:01:19;6.40;;;4.68;;
26920;SDS011;14483;47.844;9.660;2023-06-19T14:03:45;18.67;;;6.95;;
26920;SDS011;14483;47.844;9.660;2023-06-19T14:06:12;8.63;;;4.60;;
26920;SDS011;14483;47.844;9.660;2023-06-19T14:08:38;5.18;;;4.68;;
26920;SDS011;14483;47.844;9.660;2023-06-19T14:11:05;5.05;;;4.60;;
26920;SDS011;14483;47.844;9.660;2023-06-19T14:13:32;6.78;;;5.20;;
26920;SDS011;14483;47.844;9.660;2023-06-19T14:15:59;5.63;;;4.93;;
26920;SDS011;14483;47.844;9.660;2023-06-19T14:18:26;8.30;;;5.55;;
26920;SDS011;14483;47.844;9.660;2023-06-19T14:20:52;47.70;;;11.20;;
26920;SDS011;14483;47.844;9.660;2023-06-19T14:23:18;6.15;;;5.30;;
26920;SDS011;14483;47.844;9.660;2023-06-19T14:25:45;9.80;;;5.55;;
26920;SDS011;14483;47.844;9.660;2023-06-19T14:28:11;5.65;;;5.15;;
26920;SDS011;14483;47.844;9.660;2023-06-19T14:30:39;5.80;;;5.20;;
26920;SDS011;14483;47.844;9.660;2023-06-19T14:33:06;6.60;;;5.20;;
26920;SDS011;14483;47.844;9.660;2023-06-19T14:35:40;5.78;;;5.20;;
26920;SDS011;14483;47.844;9.660;2023-06-19T14:38:06;5.45;;;4.95;;
26920;SDS011;14483;47.844;9.660;2023-06-19T14:40:32;5.38;;;4.88;;
26920;SDS011;14483;47.844;9.660;2023-06-19T14:42:59;4.93;;;4.47;;
26920;SDS011;14483;47.844;9.660;2023-06-19T14:45:25;6.00;;;5.50;;
26920;SDS011;14483;47.844;9.660;2023-06-19T14:47:51;5.15;;;4.65;;